Time;durP1;ratioP1;P1;durP2;ratioP2;P2;SDS_P1;SDS_P2;PMS_P1;PMS_P2;Temp;Humidity;BMP_temperature;BMP_pressure;BME280_temperature;BME280_humidity;BME280_pressure;Samples;Min_cycle;Max_cycle;Signal;HPM_P1;HPM_P2
2022/01/14 00:02:16;;;;;;;3.60;2.00;;;;;;;11.36;36.32;96734.03;5111820;28;20035;-68
2022/01/14 00:04:42;;;;;;;2.07;1.87;;;;;;;11.09;36.92;96700.22;5111791;28;20364;-69
2022/01/14 00:07:08;;;;;;;1.50;1.40;;;;;;;11.25;36.73;96707.50;5077821;28;20036;-69
2022/01/14 00:09:36;;;;;;;7.77;3.87;;;;;;;11.62;36.28;96716.78;5094877;28;20043;-70
2022/01/14 00:12:09;;;;;;;3.67;2.60;;;;;;;11.41;36.31;96696.13;5094761;28;20134;-69
2022/01/14 00:14:40;;;;;;;4.30;2.77;;;;;;;11.14;36.65;96726.91;5111392;28;20090;-68
2022/01/14 00:17:12;;;;;;;3.85;2.17;;;;;;;11.92;36.63;96698.78;5078426;28;20592;-69
2022/01/14 00:19:38;;;;;;;2.30;1.53;;;;;;;11.79;36.08;96705.19;5111734;28;20032;-69
2022/01/14 00:22:09;;;;;;;2.00;1.53;;;;;;;11.93;35.75;96681.81;5077454;28;20036;-69
2022/01/14 00:33:00;;;;;;;1.80;1.57;;;;;;;11.86;36.12;96651.88;5080087;28;20039;-70
2022/01/14 00:35:27;;;;;;;1.00;1.00;;;;;;;12.20;36.20;96647.41;5095944;28;20131;-70
2022/01/14 00:37:52;;;;;;;1.47;1.00;;;;;;;12.01;36.23;96622.88;5111184;28;20134;-70
2022/01/14 00:40:19;;;;;;;2.57;1.83;;;;;;;12.16;35.93;96638.31;5077030;28;20169;-69
2022/01/14 00:42:45;;;;;;;2.30;1.50;;;;;;;12.32;35.98;96653.47;5093939;28;20039;-69
2022/01/14 00:45:11;;;;;;;2.50;2.07;;;;;;;12.10;35.88;96618.78;5093930;28;20131;-69
2022/01/14 00:47:39;;;;;;;3.97;2.23;;;;;;;12.41;36.35;96626.22;5077135;28;20134;-71
2022/01/14 00:50:10;;;;;;;0.63;0.63;;;;;;;12.97;35.94;96612.69;5110806;28;20506;-70
2022/01/14 00:52:38;;;;;;;0.80;0.80;;;;;;;12.70;36.04;96595.00;5094356;28;20035;-70
2022/01/14 00:55:05;;;;;;;2.30;1.70;;;;;;;12.70;35.70;96602.97;5076770;28;20050;-71
2022/01/14 01:00:16;;;;;;;1.50;1.00;;;;;;;13.09;35.51;96609.91;5110507;28;20425;-71
2022/01/14 01:02:42;;;;;;;2.03;1.40;;;;;;;12.77;35.77;96603.59;5110944;28;20062;-71
2022/01/14 01:05:08;;;;;;;1.90;1.50;;;;;;;12.68;35.91;96584.59;5077011;28;20036;-70
2022/01/14 01:07:34;;;;;;;0.83;0.83;;;;;;;12.91;35.80;96589.69;5076948;28;20035;-70
2022/01/14 01:10:00;;;;;;;1.17;1.03;;;;;;;12.87;35.86;96595.75;5076693;28;20487;-70
2022/01/14 01:15:14;;;;;;;0.80;0.80;;;;;;;12.97;35.98;96562.06;5078556;28;20055;-70
2022/01/14 01:17:39;;;;;;;1.47;1.37;;;;;;;12.85;36.08;96571.22;5110134;28;20047;-70
2022/01/14 01:20:18;;;;;;;0.70;0.70;;;;;;;12.98;35.88;96505.06;5077448;28;20055;-69
2022/01/14 01:22:48;;;;;;;1.13;1.03;;;;;;;13.33;36.22;96542.78;5110250;28;20105;-70
2022/01/14 01:25:29;;;;;;;1.07;0.97;;;;;;;12.98;36.41;96522.91;5109958;28;20491;-72
2022/01/14 01:27:57;;;;;;;0.70;0.70;;;;;;;12.73;36.52;96512.75;5110192;28;20058;-71
2022/01/14 01:32:55;;;;;;;2.23;1.30;;;;;;;13.08;36.28;96512.41;5093744;28;20039;-71
2022/01/14 01:35:23;;;;;;;0.70;0.70;;;;;;;12.98;36.31;96493.59;5076326;28;20361;-72
2022/01/14 01:37:50;;;;;;;3.30;1.43;;;;;;;12.94;36.90;96508.47;5110210;28;20120;-72
2022/01/14 01:40:16;;;;;;;0.83;0.80;;;;;;;12.30;36.77;96450.72;5093009;28;20093;-71
2022/01/14 01:42:45;;;;;;;0.87;0.80;;;;;;;13.27;36.65;96513.66;5076058;28;20056;-70
2022/01/14 01:45:14;;;;;;;1.60;1.10;;;;;;;12.94;36.90;96489.84;5059797;28;20055;-70
2022/01/14 01:47:41;;;;;;;1.33;0.57;;;;;;;12.83;37.15;96504.91;5076681;28;20084;-70
2022/01/14 01:50:12;;;;;;;1.10;0.87;;;;;;;12.94;36.87;96458.69;5092660;28;20074;-72
2022/01/14 01:52:38;;;;;;;0.93;0.70;;;;;;;13.07;36.74;96503.59;5093159;28;20043;-69
2022/01/14 01:55:05;;;;;;;1.47;0.90;;;;;;;13.08;36.71;96493.75;5075873;28;20047;-71
2022/01/14 01:57:30;;;;;;;1.83;0.87;;;;;;;12.71;36.99;96458.97;5092479;28;20039;-69
2022/01/14 01:59:56;;;;;;;1.13;0.70;;;;;;;12.59;36.93;96439.63;5075748;28;20066;-70
2022/01/14 02:02:22;;;;;;;1.77;0.90;;;;;;;12.75;36.90;96459.25;5109792;28;20564;-70
2022/01/14 02:04:48;;;;;;;0.70;0.70;;;;;;;12.85;36.65;96446.06;5075808;28;20121;-70
2022/01/14 02:07:14;;;;;;;0.70;0.70;;;;;;;12.49;37.29;96426.19;5075966;28;20573;-70
2022/01/14 02:09:40;;;;;;;0.80;0.70;;;;;;;12.61;37.29;96447.38;5059170;28;20050;-71
2022/01/14 02:12:09;;;;;;;0.60;0.60;;;;;;;13.01;36.88;96472.63;5059122;28;20413;-70
2022/01/14 02:19:42;;;;;;;0.87;0.70;;;;;;;13.55;36.11;96418.28;5092416;28;20507;-72
2022/01/14 02:22:12;;;;;;;0.73;0.70;;;;;;;12.99;36.27;96433.97;5060536;28;20431;-72
2022/01/14 02:27:11;;;;;;;0.60;0.60;;;;;;;13.47;36.20;96410.72;5076113;28;20040;-72
2022/01/14 02:29:37;;;;;;;0.60;0.60;;;;;;;12.98;36.48;96390.53;5093053;28;20513;-70
2022/01/14 02:32:03;;;;;;;2.47;1.03;;;;;;;12.94;36.91;96400.09;5075397;28;20039;-71
2022/01/14 02:34:29;;;;;;;2.67;0.60;;;;;;;13.08;36.45;96390.69;5090890;28;20491;-69
2022/01/14 02:36:55;;;;;;;1.90;1.13;;;;;;;13.03;36.68;96379.97;5090115;28;20071;-68
2022/01/14 02:39:21;;;;;;;0.73;0.67;;;;;;;13.07;36.43;96389.06;5073021;28;20468;-69
2022/01/14 02:41:49;;;;;;;0.60;0.60;;;;;;;13.18;37.06;96379.28;5089954;28;20123;-70
2022/01/14 02:44:23;;;;;;;1.13;0.77;;;;;;;13.29;36.70;96365.81;5072722;28;20443;-69
2022/01/14 02:46:53;;;;;;;2.23;0.93;;;;;;;12.82;36.69;96330.19;5089846;28;20071;-69
2022/01/14 02:49:20;;;;;;;0.50;0.50;;;;;;;13.27;36.55;96367.91;5108132;28;20135;-69
2022/01/14 02:51:46;;;;;;;0.50;0.50;;;;;;;13.01;36.51;96357.28;5075071;28;21116;-71
2022/01/14 02:54:16;;;;;;;2.07;0.50;;;;;;;13.08;36.41;96358.72;5091855;28;20074;-70
2022/01/14 02:56:43;;;;;;;0.50;0.50;;;;;;;13.64;36.28;96335.94;5091677;28;20394;-70
2022/01/14 02:59:10;;;;;;;3.60;1.30;;;;;;;13.23;36.25;96320.72;5091957;28;20433;-70
2022/01/14 03:01:36;;;;;;;2.27;1.00;;;;;;;13.29;36.59;96341.84;5058707;28;20046;-71
2022/01/14 03:04:03;;;;;;;2.23;1.03;;;;;;;13.24;36.72;96315.13;5062059;28;20138;-71
2022/01/14 03:06:30;;;;;;;0.53;0.53;;;;;;;13.18;36.68;96304.69;5076656;28;20057;-72
2022/01/14 03:08:57;;;;;;;0.50;0.50;;;;;;;13.49;36.44;96326.00;5060372;28;20050;-73
2022/01/14 03:11:31;;;;;;;0.80;0.70;;;;;;;13.66;36.28;96317.81;5110800;28;20083;-72
2022/01/14 03:13:58;;;;;;;2.53;0.90;;;;;;;13.17;36.66;96289.78;5076940;28;20109;-70
2022/01/14 03:16:24;;;;;;;2.20;0.60;;;;;;;13.40;36.52;96311.53;5110402;28;20046;-71
2022/01/14 03:18:53;;;;;;;2.77;0.77;;;;;;;12.83;37.19;96307.03;5093695;28;20097;-68
2022/01/14 03:21:28;;;;;;;0.73;0.73;;;;;;;13.42;36.20;96320.06;5078546;28;20897;-71
2022/01/14 03:24:04;;;;;;;0.63;0.63;;;;;;;13.22;36.49;96279.94;5073744;28;20046;-74
2022/01/14 03:26:29;;;;;;;2.73;1.10;;;;;;;13.36;36.21;96275.78;5094554;28;20105;-74
2022/01/14 03:28:55;;;;;;;2.83;1.10;;;;;;;13.33;36.41;96273.63;5093059;28;20595;-75
2022/01/14 03:31:23;;;;;;;0.60;0.53;;;;;;;13.36;36.32;96262.44;5059754;28;20042;-71
2022/01/14 03:33:49;;;;;;;0.70;0.67;;;;;;;13.47;36.03;96274.78;5110382;28;20044;-72
2022/01/14 03:36:15;;;;;;;2.47;0.90;;;;;;;13.40;36.06;96255.56;5059613;28;20046;-74
2022/01/14 03:38:41;;;;;;;2.57;0.83;;;;;;;12.83;37.20;96235.13;5060131;28;20063;-73
2022/01/14 03:41:07;;;;;;;2.10;0.90;;;;;;;12.89;37.20;96229.59;5076209;28;20052;-77
2022/01/14 03:43:35;;;;;;;1.13;0.70;;;;;;;12.87;37.57;96207.75;5060250;28;20058;-72
2022/01/14 03:46:01;;;;;;;4.13;0.60;;;;;;;12.87;37.36;96226.38;5075955;28;20157;-71
2022/01/14 03:48:26;;;;;;;0.70;0.70;;;;;;;12.92;37.41;96220.28;5093237;28;20167;-70
2022/01/14 03:50:52;;;;;;;1.33;0.63;;;;;;;12.65;37.74;96215.03;5093185;28;20047;-71
2022/01/14 03:53:18;;;;;;;0.90;0.90;;;;;;;12.50;38.27;96216.78;5110312;28;20667;-70
2022/01/14 03:55:46;;;;;;;1.20;0.83;;;;;;;12.22;38.96;96220.50;5109229;28;20062;-70
2022/01/14 03:58:12;;;;;;;1.27;0.90;;;;;;;12.14;39.22;96191.69;5109868;28;20035;-69
2022/01/14 04:00:38;;;;;;;5.10;2.27;;;;;;;12.53;38.64;96182.44;5092619;28;20074;-72
2022/01/14 04:03:04;;;;;;;1.87;0.80;;;;;;;12.75;38.50;96208.97;5092926;28;20053;-70
2022/01/14 04:05:30;;;;;;;5.37;0.70;;;;;;;12.15;39.26;96185.31;5109668;28;20032;-71
2022/01/14 04:07:56;;;;;;;1.17;0.80;;;;;;;12.51;38.27;96178.44;5109586;28;20043;-70
2022/01/14 04:10:22;;;;;;;2.40;1.00;;;;;;;12.42;38.44;96130.22;5092698;28;20490;-71
2022/01/14 04:12:55;;;;;;;1.63;0.87;;;;;;;12.85;38.26;96150.47;5109287;28;20066;-71
2022/01/14 04:18:15;;;;;;;1.90;0.90;;;;;;;13.04;38.16;96127.72;5109718;28;20054;-72
2022/01/14 04:20:42;;;;;;;3.77;1.90;;;;;;;13.36;37.70;96147.84;5092498;28;20131;-73
2022/01/14 04:23:11;;;;;;;3.33;1.23;;;;;;;13.02;38.08;96130.63;5109504;28;20082;-72
2022/01/14 04:25:40;;;;;;;1.40;0.93;;;;;;;12.48;38.02;96113.25;5075925;28;20051;-73
2022/01/14 04:28:07;;;;;;;6.23;1.40;;;;;;;12.92;38.59;96135.06;5109507;28;20156;-77
2022/01/14 04:30:33;;;;;;;2.53;1.00;;;;;;;13.04;38.08;96138.38;5092273;28;20096;-73
2022/01/14 04:32:59;;;;;;;2.60;1.10;;;;;;;12.70;38.55;96115.78;5109779;28;20048;-75
2022/01/14 04:35:25;;;;;;;1.77;0.90;;;;;;;12.70;38.92;96137.06;5109265;28;20054;-76
2022/01/14 04:37:51;;;;;;;0.93;0.70;;;;;;;12.77;37.95;96085.22;5075050;28;20538;-78
2022/01/14 04:40:17;;;;;;;1.60;0.70;;;;;;;12.81;37.90;96096.94;5092357;28;20063;-75
2022/01/14 04:42:43;;;;;;;2.83;1.20;;;;;;;12.72;38.62;96082.50;5075592;28;20461;-77
2022/01/14 04:45:39;;;;;;;1.13;0.80;;;;;;;13.71;37.53;96109.88;5108749;28;20036;-78
2022/01/14 04:48:08;;;;;;;3.80;1.30;;;;;;;13.41;37.97;96086.59;5110384;28;20047;-76
2022/01/14 04:50:34;;;;;;;2.27;1.10;;;;;;;12.70;38.49;96079.28;5075860;28;20100;-78
2022/01/14 04:53:00;;;;;;;1.97;0.90;;;;;;;12.98;38.59;96075.44;5110477;28;20043;-74
2022/01/14 04:55:27;;;;;;;7.37;1.60;;;;;;;13.28;37.92;96084.41;5058166;28;20340;-74
2022/01/14 04:57:54;;;;;;;4.27;1.23;;;;;;;13.55;37.48;96071.72;5091629;28;20079;-76
2022/01/14 05:00:23;;;;;;;3.57;1.40;;;;;;;12.89;38.21;96080.47;5059057;28;20054;-80
2022/01/14 05:02:51;;;;;;;3.30;0.97;;;;;;;12.70;38.55;96059.88;5091694;28;20410;-73
2022/01/14 05:05:19;;;;;;;0.70;0.70;;;;;;;13.00;38.54;96068.84;5073172;28;20039;-74
2022/01/14 05:07:46;;;;;;;1.73;1.10;;;;;;;13.15;37.79;96065.44;5089995;28;20031;-77
2022/01/14 05:12:47;;;;;;;2.53;0.90;;;;;;;13.30;37.33;96015.66;5107423;28;20142;-76
2022/01/14 05:15:16;;;;;;;2.07;1.07;;;;;;;12.97;38.05;96002.75;5108236;28;20139;-75
2022/01/14 05:17:42;;;;;;;1.57;1.00;;;;;;;12.79;38.83;96029.81;5057797;28;20039;-78
2022/01/14 05:20:09;;;;;;;1.33;1.00;;;;;;;13.19;38.20;96037.22;5091603;28;20432;-75
2022/01/14 05:22:35;;;;;;;0.60;0.60;;;;;;;13.06;37.95;96054.50;5091523;28;20463;-74
2022/01/14 05:25:01;;;;;;;2.90;1.40;;;;;;;12.54;39.08;96027.06;5077226;28;20047;-74
2022/01/14 05:27:28;;;;;;;2.00;1.20;;;;;;;12.64;38.86;96035.06;5058546;28;20040;-73
2022/01/14 05:29:54;;;;;;;2.07;1.10;;;;;;;12.73;39.02;96032.75;5074761;28;20058;-73
2022/01/14 05:32:21;;;;;;;3.60;1.30;;;;;;;12.52;39.30;96013.19;5057958;28;20071;-73
2022/01/14 05:34:47;;;;;;;3.70;1.30;;;;;;;12.99;38.51;96018.47;5091389;28;20051;-74
2022/01/14 05:37:13;;;;;;;2.92;1.35;;;;;;;12.62;39.50;96004.47;5074345;28;20136;-74
2022/01/14 05:39:40;;;;;;;1.20;1.10;;;;;;;12.90;39.57;95996.84;5108187;28;20045;-75
2022/01/14 05:42:06;;;;;;;7.83;1.80;;;;;;;12.62;39.75;95978.66;5074509;28;20388;-75
2022/01/14 05:44:33;;;;;;;1.83;0.97;;;;;;;12.52;39.07;95941.34;5058412;28;20047;-77
2022/01/14 05:47:00;;;;;;;2.40;1.10;;;;;;;13.22;38.74;95973.53;5091606;28;20051;-77
2022/01/14 05:49:27;;;;;;;7.78;2.72;;;;;;;12.73;39.51;95943.00;5091854;28;20039;-75
2022/01/14 05:51:53;;;;;;;10.13;2.87;;;;;;;12.93;38.56;95972.38;5108764;28;20048;-77
2022/01/14 05:54:20;;;;;;;9.80;2.60;;;;;;;13.31;37.75;95961.34;5058179;28;20047;-76
2022/01/14 05:56:46;;;;;;;10.53;2.57;;;;;;;13.03;37.73;95940.50;5057806;28;20052;-76
2022/01/14 05:59:12;;;;;;;5.87;2.53;;;;;;;13.20;37.72;95951.72;5091660;28;20035;-75
2022/01/14 06:01:38;;;;;;;7.30;3.00;;;;;;;13.01;38.56;95965.75;5074171;28;20051;-74
2022/01/14 06:04:05;;;;;;;9.80;3.10;;;;;;;13.12;37.37;95887.50;5073909;28;20044;-74
2022/01/14 06:06:32;;;;;;;14.97;3.13;;;;;;;13.22;37.23;95912.28;5058702;28;20043;-73
2022/01/14 06:08:58;;;;;;;4.90;2.47;;;;;;;12.94;37.63;95895.94;5075434;28;20526;-73
2022/01/14 06:11:26;;;;;;;5.27;2.63;;;;;;;13.22;38.14;95890.94;5057130;28;20042;-72
2022/01/14 06:13:52;;;;;;;5.37;2.70;;;;;;;13.45;37.05;95902.97;5090574;28;20048;-72
2022/01/14 06:16:18;;;;;;;4.63;2.67;;;;;;;13.06;38.04;95928.50;5090363;28;20038;-72
2022/01/14 06:18:44;;;;;;;5.13;2.60;;;;;;;12.92;38.59;95909.53;5074169;28;20047;-72
2022/01/14 06:21:13;;;;;;;5.87;3.27;;;;;;;13.09;38.59;95899.47;5074360;28;20054;-72
2022/01/14 06:23:39;;;;;;;4.37;2.63;;;;;;;12.99;38.62;95902.06;5091658;28;20522;-72
2022/01/14 06:26:05;;;;;;;3.77;2.63;;;;;;;13.22;38.67;95900.84;5075255;28;20104;-72
2022/01/14 06:28:32;;;;;;;6.60;2.57;;;;;;;12.89;38.74;95880.78;5075284;28;20047;-72
2022/01/14 06:30:58;;;;;;;6.17;2.30;;;;;;;12.58;39.57;95863.13;5074522;28;20044;-72
2022/01/14 06:33:26;;;;;;;5.93;2.40;;;;;;;12.81;39.48;95859.97;5092108;28;20051;-73
2022/01/14 06:35:52;;;;;;;4.03;2.63;;;;;;;13.13;38.92;95855.25;5090693;28;20040;-72
2022/01/14 06:38:19;;;;;;;6.33;2.27;;;;;;;13.31;38.32;95864.59;5094386;28;20058;-72
2022/01/14 06:40:46;;;;;;;6.23;2.27;;;;;;;12.70;39.67;95860.22;5061360;28;20510;-72
2022/01/14 06:43:14;;;;;;;4.67;2.40;;;;;;;13.26;38.98;95854.75;5095121;28;20112;-71
2022/01/14 06:45:40;;;;;;;6.37;2.40;;;;;;;13.13;38.55;95836.59;5061722;28;20419;-71
2022/01/14 06:48:05;;;;;;;3.83;2.23;;;;;;;12.28;39.42;95799.19;5094615;28;20043;-73
2022/01/14 06:50:34;;;;;;;7.07;2.70;;;;;;;12.59;39.47;95816.03;5094872;28;20532;-72
2022/01/14 06:53:03;;;;;;;4.95;2.40;;;;;;;12.91;38.92;95784.66;5094918;28;20407;-72
2022/01/14 06:55:31;;;;;;;6.90;2.70;;;;;;;12.87;38.92;95837.63;5095743;28;20046;-71
2022/01/14 06:57:56;;;;;;;5.83;2.83;;;;;;;12.54;39.30;95800.03;5111109;28;20055;-71
2022/01/14 07:00:23;;;;;;;5.17;2.70;;;;;;;12.74;39.18;95800.06;5077459;28;20032;-71
2022/01/14 07:02:49;;;;;;;6.23;2.60;;;;;;;12.76;39.48;95814.69;5094932;28;20040;-70
2022/01/14 07:05:15;;;;;;;4.53;2.50;;;;;;;13.05;38.99;95801.72;5077879;28;20035;-71
2022/01/14 07:07:41;;;;;;;6.57;2.50;;;;;;;13.14;38.70;95803.59;5077789;28;20036;-71
2022/01/14 07:10:09;;;;;;;6.10;2.70;;;;;;;13.64;38.15;95815.28;5111774;28;20153;-71
2022/01/14 07:12:39;;;;;;;2.93;2.37;;;;;;;13.77;37.85;95825.34;5112728;28;20075;-71
2022/01/14 07:15:07;;;;;;;35.92;17.73;;;;;;;13.83;37.53;95801.09;5077257;28;20085;-71
2022/01/14 07:17:32;;;;;;;4.90;2.00;;;;;;;13.03;38.23;95791.34;5112446;28;20044;-71
2022/01/14 07:20:05;;;;;;;4.93;2.00;;;;;;;13.10;38.58;95794.53;5086035;28;20055;-71
2022/01/14 07:22:31;;;;;;;5.23;2.43;;;;;;;13.21;38.46;95787.31;5061735;28;20434;-70
2022/01/14 07:24:58;;;;;;;7.80;2.47;;;;;;;13.34;38.15;95786.78;5059988;28;20040;-71
2022/01/14 07:27:24;;;;;;;4.20;2.17;;;;;;;12.84;38.86;95771.59;5060372;28;20421;-71
2022/01/14 07:29:50;;;;;;;3.50;2.70;;;;;;;13.58;37.61;95769.16;5110581;28;20073;-71
2022/01/14 07:32:16;;;;;;;10.65;2.95;;;;;;;13.55;37.62;95767.84;5077006;28;20415;-71
2022/01/14 07:34:42;;;;;;;6.03;2.77;;;;;;;13.04;38.46;95745.00;5060045;28;20039;-71
2022/01/14 07:37:07;;;;;;;2.85;1.77;;;;;;;12.62;38.67;95736.47;5111098;28;20043;-71
2022/01/14 07:39:33;;;;;;;1.40;1.30;;;;;;;13.50;37.76;95751.03;5061011;28;20092;-71
2022/01/14 07:41:59;;;;;;;2.57;1.60;;;;;;;13.44;37.57;95744.13;5076358;28;20058;-72
2022/01/14 07:44:25;;;;;;;4.57;1.90;;;;;;;14.01;36.62;95747.13;5060284;28;20509;-72
2022/01/14 07:46:51;;;;;;;2.10;1.90;;;;;;;14.11;36.11;95739.09;5074827;28;20097;-72
2022/01/14 07:49:16;;;;;;;3.75;1.63;;;;;;;13.57;37.15;95699.06;5071903;28;20557;-72
2022/01/14 07:51:42;;;;;;;2.75;1.38;;;;;;;13.75;36.96;95716.31;5073739;28;20031;-73
2022/01/14 07:54:08;;;;;;;10.15;2.05;;;;;;;13.70;37.60;95687.00;5056600;28;20047;-72
2022/01/14 07:56:41;;;;;;;3.55;1.77;;;;;;;13.82;37.66;95702.69;5091672;28;20105;-73
2022/01/14 07:59:07;;;;;;;3.40;1.65;;;;;;;13.59;37.39;95696.91;5039983;28;20086;-71
2022/01/14 08:01:36;;;;;;;2.58;1.60;;;;;;;14.17;36.17;95684.66;5056788;28;20112;-72
2022/01/14 08:04:04;;;;;;;4.32;1.70;;;;;;;14.13;36.64;95686.25;5056708;28;20040;-73
2022/01/14 08:06:32;;;;;;;6.43;1.90;;;;;;;13.82;36.43;95692.84;5040528;28;20043;-71
2022/01/14 08:08:59;;;;;;;6.43;2.30;;;;;;;13.25;37.88;95671.19;5089457;28;20563;-72
2022/01/14 08:11:24;;;;;;;8.37;2.00;;;;;;;13.35;37.16;95674.63;5039196;28;20098;-72
2022/01/14 08:13:50;;;;;;;8.68;2.50;;;;;;;13.89;37.20;95674.66;5072256;28;20416;-72
2022/01/14 08:16:23;;;;;;;4.00;1.90;;;;;;;13.07;37.63;95658.41;5056091;28;20036;-71
2022/01/14 08:18:49;;;;;;;4.28;1.58;;;;;;;13.42;37.65;95680.44;5073693;28;20524;-70
2022/01/14 08:21:15;;;;;;;2.10;1.50;;;;;;;13.88;37.08;95659.75;5056272;28;20055;-71
2022/01/14 08:23:41;;;;;;;2.17;1.40;;;;;;;13.95;36.16;95657.56;5095869;28;20411;-70
2022/01/14 08:26:07;;;;;;;3.22;1.33;;;;;;;13.91;36.25;95634.38;5075786;28;20453;-71
2022/01/14 08:28:33;;;;;;;1.35;1.13;;;;;;;13.77;36.98;95630.72;5064643;28;20047;-71
2022/01/14 08:31:01;;;;;;;2.47;1.30;;;;;;;13.59;37.09;95629.50;5050955;28;20449;-71
2022/01/14 08:33:27;;;;;;;3.42;1.17;;;;;;;13.91;36.60;95623.72;5089833;28;20039;-71
2022/01/14 08:35:53;;;;;;;1.42;1.25;;;;;;;13.89;36.36;95601.84;5065361;28;20043;-72
2022/01/14 08:38:21;;;;;;;2.25;1.30;;;;;;;14.02;36.45;95598.56;5072229;28;20044;-73
2022/01/14 08:40:47;;;;;;;5.88;1.42;;;;;;;14.21;35.91;95588.81;5072251;28;20067;-72
2022/01/14 08:43:13;;;;;;;1.90;1.38;;;;;;;13.55;36.89;95567.13;5072423;28;20531;-72
2022/01/14 08:45:39;;;;;;;1.83;1.50;;;;;;;13.51;36.86;95569.53;5054847;28;20059;-72
2022/01/14 08:48:05;;;;;;;2.88;1.50;;;;;;;13.74;36.90;95545.94;5088131;28;20052;-71
2022/01/14 08:50:35;;;;;;;3.13;1.60;;;;;;;14.66;35.57;95577.78;5056400;28;20044;-71
2022/01/14 08:53:02;;;;;;;5.47;1.90;;;;;;;14.65;35.20;95566.28;5089675;28;20036;-72
2022/01/14 08:55:28;;;;;;;4.60;2.08;;;;;;;14.30;35.76;95539.16;5055156;28;20065;-72
2022/01/14 08:57:55;;;;;;;4.22;1.63;;;;;;;14.13;35.28;95541.41;5076051;28;20136;-72
2022/01/14 09:00:23;;;;;;;3.33;1.30;;;;;;;14.52;35.31;95560.81;5073023;28;20038;-77
2022/01/14 09:02:53;;;;;;;3.22;1.20;;;;;;;14.85;34.93;95552.75;5090618;28;20054;-72
2022/01/14 09:05:20;;;;;;;1.88;1.10;;;;;;;14.52;35.55;95544.81;5083088;28;20043;-71
2022/01/14 09:07:46;;;;;;;3.63;1.35;;;;;;;14.25;35.32;95517.84;5065655;28;20039;-72
2022/01/14 09:10:12;;;;;;;3.42;1.27;;;;;;;14.27;35.40;95537.06;5087532;28;20164;-72
2022/01/14 09:12:38;;;;;;;2.58;1.10;;;;;;;14.33;35.21;95525.25;5072878;28;20130;-71
2022/01/14 09:15:05;;;;;;;3.28;1.27;;;;;;;14.39;35.60;95513.47;5089266;28;20818;-71
2022/01/14 09:17:30;;;;;;;2.53;1.35;;;;;;;14.60;34.56;95522.84;5106984;28;20066;-70
2022/01/14 09:19:56;;;;;;;2.97;1.50;;;;;;;14.71;34.67;95497.63;5070660;28;20071;-70
2022/01/14 09:22:25;;;;;;;4.13;1.20;;;;;;;14.36;35.35;95476.66;5073323;28;20035;-70
2022/01/14 09:24:51;;;;;;;4.40;1.52;;;;;;;14.27;35.36;95489.81;5085608;28;20756;-69
2022/01/14 09:27:16;;;;;;;4.78;1.60;;;;;;;14.69;34.45;95489.91;5100871;28;20047;-69
2022/01/14 09:29:43;;;;;;;3.38;1.40;;;;;;;14.58;35.02;95475.06;5054347;28;20040;-70
2022/01/14 09:32:10;;;;;;;1.40;1.20;;;;;;;15.19;34.34;95472.47;5071973;28;20043;-72
2022/01/14 09:34:37;;;;;;;3.40;1.35;;;;;;;15.22;33.45;95463.88;5088066;28;20079;-69
2022/01/14 09:37:03;;;;;;;4.75;1.40;;;;;;;14.79;34.60;95462.31;5107728;28;20036;-70
2022/01/14 09:39:31;;;;;;;3.13;1.30;;;;;;;15.00;34.12;95458.28;5090498;28;20047;-69
2022/01/14 09:41:58;;;;;;;5.63;1.75;;;;;;;15.06;34.21;95454.47;5089583;28;20043;-72
2022/01/14 09:44:24;;;;;;;7.43;2.45;;;;;;;14.90;34.11;95463.75;5091216;28;20219;-71
2022/01/14 09:46:51;;;;;;;5.00;2.03;;;;;;;15.16;33.69;95451.66;5069854;28;20816;-71
2022/01/14 09:49:17;;;;;;;1.95;1.50;;;;;;;14.28;34.37;95387.34;5069533;28;20040;-73
2022/01/14 09:51:43;;;;;;;3.03;1.30;;;;;;;14.78;34.02;95429.44;5080355;28;20582;-69
2022/01/14 09:54:10;;;;;;;1.35;1.10;;;;;;;14.96;34.39;95418.00;5089690;28;20138;-70
2022/01/14 09:56:38;;;;;;;7.15;1.42;;;;;;;15.15;33.98;95415.34;5074408;28;20043;-69
2022/01/14 09:59:05;;;;;;;3.88;1.77;;;;;;;15.16;33.64;95419.59;5074965;28;20510;-69
2022/01/14 10:01:44;;;;;;;2.95;1.45;;;;;;;15.45;32.83;95417.59;5085534;28;20467;-69
2022/01/14 10:04:20;;;;;;;2.92;1.40;;;;;;;15.77;32.55;95404.25;5090587;28;20040;-68
2022/01/14 10:06:54;;;;;;;12.25;1.30;;;;;;;15.28;33.53;95401.25;5091526;28;20044;-69
2022/01/14 10:09:24;;;;;;;2.25;1.30;;;;;;;14.80;33.66;95368.53;5108178;28;20137;-69
2022/01/14 10:12:12;;;;;;;6.40;1.52;;;;;;;15.56;32.74;95389.59;5091009;28;20050;-70
2022/01/14 10:14:43;;;;;;;3.58;1.42;;;;;;;15.69;33.03;95394.22;5116554;28;20055;-73
2022/01/14 10:17:10;;;;;;;2.40;1.45;;;;;;;15.44;33.00;95381.25;5061408;28;20040;-71
2022/01/14 10:19:44;;;;;;;4.85;1.30;;;;;;;15.76;32.44;95372.44;5112317;28;20142;-70
2022/01/14 10:22:24;;;;;;;5.50;1.60;;;;;;;15.67;32.15;95358.94;5077292;28;20097;-73
2022/01/14 10:25:02;;;;;;;2.83;1.30;;;;;;;15.63;32.83;95351.81;5097985;28;20044;-68
2022/01/14 10:27:48;;;;;;;5.40;1.52;;;;;;;15.37;32.69;95311.31;5096310;28;20097;-74
2022/01/14 10:30:28;;;;;;;2.00;1.40;;;;;;;15.73;32.54;95343.63;5095837;28;20134;-69
2022/01/14 10:33:01;;;;;;;1.77;1.60;;;;;;;15.53;32.37;95347.41;5091037;28;20047;-69
2022/01/14 10:35:35;;;;;;;4.47;1.30;;;;;;;15.59;32.63;95340.88;5074513;28;20055;-69
2022/01/14 10:38:06;;;;;;;2.92;1.58;;;;;;;15.35;32.70;95326.03;5092096;28;20093;-70
2022/01/14 10:40:41;;;;;;;2.83;1.50;;;;;;;15.55;32.81;95318.50;5092265;28;20528;-70
2022/01/14 10:43:09;;;;;;;4.97;1.52;;;;;;;15.16;33.50;95296.66;5075732;28;20131;-68
2022/01/14 10:45:35;;;;;;;4.15;1.40;;;;;;;15.24;32.88;95312.03;5058600;28;20060;-70
2022/01/14 10:48:10;;;;;;;4.03;1.30;;;;;;;15.75;32.43;95307.47;5074476;28;20036;-69
2022/01/14 10:50:44;;;;;;;2.25;1.20;;;;;;;15.71;32.28;95295.78;5074916;28;20503;-68
2022/01/14 10:53:21;;;;;;;3.50;1.38;;;;;;;15.14;32.47;95280.16;5074267;28;20504;-68
2022/01/14 10:56:11;;;;;;;8.70;2.35;;;;;;;15.91;31.82;95295.41;5091044;28;20511;-69
2022/01/14 10:58:45;;;;;;;4.78;1.33;;;;;;;16.05;31.72;95308.78;5090970;28;20087;-68
2022/01/14 11:01:18;;;;;;;3.63;1.42;;;;;;;15.84;32.29;95310.22;5106160;28;20161;-70
2022/01/14 11:03:52;;;;;;;3.80;1.10;;;;;;;15.88;32.17;95313.91;5057682;28;20036;-69
2022/01/14 11:06:23;;;;;;;1.85;1.20;;;;;;;15.69;32.62;95311.31;5073600;28;20044;-69
2022/01/14 11:08:57;;;;;;;2.90;1.08;;;;;;;15.65;32.30;95313.00;5096929;28;20093;-69
2022/01/14 11:11:24;;;;;;;1.40;0.95;;;;;;;15.43;32.81;95304.81;5057189;28;20044;-69
2022/01/14 11:13:50;;;;;;;1.33;1.15;;;;;;;14.79;32.87;95272.69;5056903;28;20396;-69
2022/01/14 11:16:16;;;;;;;1.95;1.05;;;;;;;15.00;33.05;95295.34;5072464;28;20058;-71
2022/01/14 11:18:42;;;;;;;2.28;1.30;;;;;;;15.06;33.15;95280.81;5073122;28;20051;-69
2022/01/14 11:23:51;;;;;;;3.90;1.30;;;;;;;15.04;32.96;95291.78;5058394;28;20127;-70
2022/01/14 11:26:20;;;;;;;3.25;1.50;;;;;;;15.46;32.97;95285.53;5056166;28;20225;-70
2022/01/14 11:28:46;;;;;;;1.80;1.67;;;;;;;15.34;32.94;95284.38;5090207;28;20445;-69
2022/01/14 11:31:33;;;;;;;2.58;1.40;;;;;;;15.57;32.04;95276.25;5090976;28;20124;-71
2022/01/14 11:34:01;;;;;;;1.65;1.27;;;;;;;15.37;32.67;95279.22;5088613;28;20429;-70
2022/01/14 11:36:50;;;;;;;3.65;1.40;;;;;;;15.55;31.56;95275.72;5071519;28;20123;-70
2022/01/14 11:39:20;;;;;;;1.95;1.45;;;;;;;15.41;31.96;95284.81;5054377;28;20585;-69
2022/01/14 11:41:59;;;;;;;2.28;1.27;;;;;;;15.38;31.99;95274.69;5087897;28;20044;-70
2022/01/14 11:44:43;;;;;;;6.85;1.17;;;;;;;15.54;31.63;95273.34;5054616;28;20426;-71
2022/01/14 11:47:21;;;;;;;1.85;1.10;;;;;;;15.27;32.13;95266.03;5088687;28;20052;-71
2022/01/14 11:49:47;;;;;;;1.35;1.05;;;;;;;14.15;32.91;95270.59;5073966;28;20097;-71
2022/01/14 11:52:13;;;;;;;2.55;1.10;;;;;;;14.17;32.87;95272.97;5040125;28;20442;-72
2022/01/14 11:54:45;;;;;;;1.58;1.20;;;;;;;14.57;32.42;95235.09;5088742;28;20055;-72
2022/01/14 11:57:13;;;;;;;1.77;0.98;;;;;;;14.40;33.01;95238.28;5068525;28;20044;-72
2022/01/14 11:59:40;;;;;;;3.28;1.27;;;;;;;14.19;33.04;95249.50;5106854;28;20101;-71
2022/01/14 12:02:25;;;;;;;4.13;1.10;;;;;;;14.81;32.48;95227.78;5107644;28;20054;-70
2022/01/14 12:05:05;;;;;;;1.88;1.05;;;;;;;14.64;32.45;95214.16;5074710;28;20126;-71
2022/01/14 12:07:31;;;;;;;1.07;0.97;;;;;;;14.10;32.96;95209.31;5108550;28;20048;-71
2022/01/14 12:10:09;;;;;;;4.05;1.33;;;;;;;14.76;32.28;95212.63;5074477;28;20082;-71
2022/01/14 12:12:35;;;;;;;1.75;1.20;;;;;;;14.29;32.79;95218.16;5110038;28;20036;-73